Time;durP1;ratioP1;P1;durP2;ratioP2;P2;SDS_P1;SDS_P2;PMS_P1;PMS_P2;Temp;Humidity;BMP_temperature;BMP_pressure;BME280_temperature;BME280_humidity;BME280_pressure;Samples;Min_cycle;Max_cycle;Signal;HPM_P1;HPM_P2
2022/09/06 00:01:39;;;;;;;19.42;13.93;;;;;;;10.33;100.00;98750.59;1717622;82;20997;-90
2022/09/06 00:04:05;;;;;;;22.32;14.03;;;;;;;10.32;100.00;98752.49;1737254;82;21366;-91
2022/09/06 00:06:31;;;;;;;21.30;14.03;;;;;;;10.31;100.00;98745.45;1725036;82;21345;-83
2022/09/06 00:08:57;;;;;;;18.55;13.25;;;;;;;10.27;100.00;98750.30;1722561;82;21158;-83
2022/09/06 00:11:23;;;;;;;22.35;14.25;;;;;;;10.23;100.00;98746.47;1717624;82;20964;-83
2022/09/06 00:13:49;;;;;;;23.65;15.50;;;;;;;10.23;100.00;98753.23;1723390;82;21007;-83
2022/09/06 00:16:19;;;;;;;20.55;12.63;;;;;;;10.21;100.00;98750.77;1723212;82;21039;-83
2022/09/06 00:18:45;;;;;;;17.82;12.43;;;;;;;10.13;100.00;98747.99;1709581;82;21027;-91
2022/09/06 00:21:26;;;;;;;16.65;12.60;;;;;;;10.12;100.00;98749.61;1720851;82;21130;-83
2022/09/06 00:23:52;;;;;;;19.15;13.45;;;;;;;10.07;100.00;98747.66;1709095;82;21007;-89
2022/09/06 00:26:19;;;;;;;18.00;11.70;;;;;;;10.06;100.00;98741.98;1723376;82;21003;-83
2022/09/06 00:28:45;;;;;;;20.72;12.80;;;;;;;10.04;100.00;98739.25;1719289;82;21058;-90
2022/09/06 00:31:20;;;;;;;18.62;13.10;;;;;;;10.02;100.00;98739.52;1705424;82;20912;-90
2022/09/06 00:33:47;;;;;;;17.70;12.58;;;;;;;10.04;100.00;98736.01;1728685;82;21241;-90
2022/09/06 00:36:13;;;;;;;21.75;12.95;;;;;;;10.09;100.00;98737.95;1718474;82;21040;-83
2022/09/06 00:38:39;;;;;;;18.00;12.33;;;;;;;10.10;100.00;98736.88;1735776;82;21012;-90
2022/09/06 00:41:06;;;;;;;15.15;11.50;;;;;;;10.08;100.00;98731.72;1712409;82;21009;-89
2022/09/06 00:43:32;;;;;;;22.48;13.95;;;;;;;10.06;100.00;98733.03;1699140;82;21463;-83
2022/09/06 00:45:58;;;;;;;19.92;13.18;;;;;;;10.03;100.00;98730.86;1705126;82;21532;-82
2022/09/06 00:48:24;;;;;;;17.00;11.73;;;;;;;10.00;100.00;98732.70;1704228;82;21016;-83
2022/09/06 00:50:54;;;;;;;19.60;12.58;;;;;;;9.93;100.00;98734.30;1717703;82;22227;-83
2022/09/06 00:53:20;;;;;;;19.35;12.30;;;;;;;9.96;100.00;98731.06;1732204;81;21005;-83
2022/09/06 00:55:47;;;;;;;18.02;12.55;;;;;;;9.98;100.00;98730.80;1721898;82;20906;-90
2022/09/06 00:58:13;;;;;;;16.12;11.73;;;;;;;9.98;100.00;98737.03;1730746;80;21508;-82
2022/09/06 01:00:39;;;;;;;16.27;11.53;;;;;;;9.98;100.00;98741.09;1686345;83;20877;-83
2022/09/06 01:03:05;;;;;;;21.77;12.73;;;;;;;9.99;100.00;98733.78;1717404;82;20913;-89
2022/09/06 01:05:58;;;;;;;17.15;11.10;;;;;;;10.03;100.00;98743.04;1733385;82;21035;-83
2022/09/06 01:08:51;;;;;;;15.53;10.13;;;;;;;10.06;100.00;98747.93;1726580;82;21046;-90
2022/09/06 01:11:50;;;;;;;23.80;11.05;;;;;;;10.02;100.00;98750.34;1722321;82;21969;-83
2022/09/06 01:14:52;;;;;;;17.30;10.70;;;;;;;10.04;100.00;98749.55;1711852;82;21482;-88
2022/09/06 01:17:42;;;;;;;17.20;10.58;;;;;;;10.03;100.00;98753.88;1725257;82;21628;-90
2022/09/06 01:20:40;;;;;;;18.90;11.10;;;;;;;10.01;100.00;98747.36;1658077;85;21508;-90
2022/09/06 01:23:42;;;;;;;18.77;11.28;;;;;;;10.04;100.00;98741.42;1634844;85;21409;-83
2022/09/06 01:26:22;;;;;;;17.37;11.03;;;;;;;10.04;100.00;98746.02;1672202;85;21154;-90
2022/09/06 01:28:49;;;;;;;18.25;10.72;;;;;;;10.00;100.00;98736.27;1733268;82;21429;-83
2022/09/06 01:31:34;;;;;;;15.70;10.58;;;;;;;9.99;100.00;98744.08;1710297;82;21107;-84
2022/09/06 01:34:08;;;;;;;18.75;10.13;;;;;;;9.97;100.00;98735.95;1698865;82;21014;-90
2022/09/06 01:37:04;;;;;;;17.45;11.12;;;;;;;9.93;100.00;98737.55;1706908;82;21075;-86
2022/09/06 01:39:33;;;;;;;19.30;11.43;;;;;;;9.84;100.00;98731.25;1718537;82;21052;-82
2022/09/06 01:42:06;;;;;;;16.02;11.25;;;;;;;9.78;100.00;98729.56;1703055;82;21409;-91
2022/09/06 01:44:32;;;;;;;15.13;10.43;;;;;;;9.76;100.00;98732.25;1718773;82;21072;-83
2022/09/06 01:47:21;;;;;;;13.65;10.05;;;;;;;9.74;100.00;98732.52;1744937;80;20898;-82
2022/09/06 01:50:27;;;;;;;17.23;10.90;;;;;;;9.68;100.00;98732.72;1727504;80;20995;-89
2022/09/06 01:53:28;;;;;;;25.15;11.25;;;;;;;9.67;100.00;98735.15;1731763;82;21144;-82
2022/09/06 01:56:34;;;;;;;14.50;10.58;;;;;;;9.70;100.00;98738.69;1729237;82;21017;-83
2022/09/06 01:59:36;;;;;;;14.55;10.60;;;;;;;9.67;100.00;98735.15;1640781;85;21001;-90
2022/09/06 02:02:26;;;;;;;14.55;10.03;;;;;;;9.60;100.00;98731.30;1677541;85;21038;-90
2022/09/06 02:05:00;;;;;;;15.93;10.13;;;;;;;9.57;100.00;98727.22;1708872;82;21454;-90
2022/09/06 02:07:28;;;;;;;14.93;10.00;;;;;;;9.48;100.00;98724.66;1728027;82;21129;-83
2022/09/06 02:09:59;;;;;;;13.80;10.35;;;;;;;9.48;100.00;98717.90;1709260;82;21275;-90
2022/09/06 02:12:26;;;;;;;14.13;9.53;;;;;;;9.49;100.00;98724.97;1656022;85;21034;-90
2022/09/06 02:15:02;;;;;;;16.30;10.55;;;;;;;9.52;100.00;98729.86;1701066;82;20997;-90
2022/09/06 02:17:34;;;;;;;16.48;10.35;;;;;;;9.56;100.00;98730.97;1696737;82;21043;-83
2022/09/06 02:20:10;;;;;;;13.72;10.05;;;;;;;9.58;100.00;98723.44;1722068;82;21804;-89
2022/09/06 02:22:39;;;;;;;15.63;10.32;;;;;;;9.63;100.00;98723.19;1712546;82;20995;-88
2022/09/06 02:25:08;;;;;;;16.35;9.75;;;;;;;9.59;100.00;98721.55;1711932;82;21081;-83
2022/09/06 02:27:34;;;;;;;17.07;10.38;;;;;;;9.59;100.00;98721.55;1696169;82;20999;-83
2022/09/06 02:30:01;;;;;;;12.47;9.70;;;;;;;9.57;100.00;98724.52;1695270;82;21068;-82
2022/09/06 02:32:29;;;;;;;13.50;10.15;;;;;;;9.55;100.00;98713.11;1706121;82;21021;-82
2022/09/06 02:34:55;;;;;;;16.32;10.88;;;;;;;9.55;100.00;98713.11;1720718;82;21014;-84
2022/09/06 02:37:25;;;;;;;15.98;9.93;;;;;;;9.55;100.00;98705.52;1712676;82;20998;-90
2022/09/06 02:39:54;;;;;;;19.00;10.63;;;;;;;9.56;100.00;98707.97;1728521;82;21005;-83
2022/09/06 02:42:20;;;;;;;13.48;10.10;;;;;;;9.60;100.00;98702.88;1698732;82;21048;-83
2022/09/06 02:44:46;;;;;;;14.35;9.78;;;;;;;9.63;100.00;98709.66;1723117;82;21121;-83
2022/09/06 02:47:12;;;;;;;14.95;9.90;;;;;;;9.60;100.00;98708.29;1679956;84;21687;-90
2022/09/06 02:49:38;;;;;;;15.15;9.93;;;;;;;9.59;100.00;98708.83;1733521;82;21011;-84
2022/09/06 02:52:03;;;;;;;14.43;11.00;;;;;;;9.60;100.00;98709.64;1723583;82;20894;-90
2022/09/06 02:54:30;;;;;;;16.48;10.45;;;;;;;9.60;100.00;98710.46;1710620;80;21064;-82
2022/09/06 02:56:56;;;;;;;15.25;10.20;;;;;;;9.59;100.00;98711.53;1723408;82;21118;-82
2022/09/06 02:59:22;;;;;;;15.15;10.03;;;;;;;9.62;100.00;98707.49;1698574;82;21019;-85
2022/09/06 03:01:48;;;;;;;13.40;9.53;;;;;;;9.66;100.00;98714.58;1710427;82;20975;-90
2022/09/06 03:04:14;;;;;;;17.10;9.75;;;;;;;9.71;100.00;98710.55;1712699;82;21163;-90
2022/09/06 03:06:40;;;;;;;12.80;9.48;;;;;;;9.73;100.00;98711.91;1700899;82;20951;-83
2022/09/06 03:09:06;;;;;;;15.00;9.68;;;;;;;9.73;100.00;98707.04;1708481;82;21073;-90
2022/09/06 03:11:32;;;;;;;15.65;9.65;;;;;;;9.71;100.00;98705.13;1715032;82;20883;-90
2022/09/06 03:13:58;;;;;;;12.65;8.73;;;;;;;9.70;100.00;98699.45;1712575;82;20959;-89
2022/09/06 03:16:24;;;;;;;11.12;9.43;;;;;;;9.65;100.00;98692.08;1712892;82;20868;-90
2022/09/06 03:18:50;;;;;;;12.23;9.80;;;;;;;9.63;100.00;98693.42;1712628;82;20967;-83
2022/09/06 03:21:15;;;;;;;13.75;10.08;;;;;;;9.60;100.00;98696.12;1731888;82;21155;-89
2022/09/06 03:23:41;;;;;;;15.58;10.18;;;;;;;9.56;100.00;98699.04;1737140;82;20897;-83
2022/09/06 03:26:07;;;;;;;15.20;10.05;;;;;;;9.52;100.00;98696.58;1737477;82;20885;-90
2022/09/06 03:28:33;;;;;;;16.40;9.93;;;;;;;9.45;100.00;98698.13;1737273;82;20945;-83
2022/09/06 03:30:59;;;;;;;16.80;10.18;;;;;;;9.43;100.00;98701.64;1724923;82;21644;-90
2022/09/06 03:33:26;;;;;;;16.90;9.95;;;;;;;9.38;100.00;98698.05;1737225;82;21826;-89
2022/09/06 03:35:54;;;;;;;14.15;10.93;;;;;;;9.29;100.00;98699.86;1710612;82;20992;-82
2022/09/06 03:38:21;;;;;;;17.15;10.78;;;;;;;9.31;100.00;98695.04;1712866;82;21051;-90
2022/09/06 03:40:47;;;;;;;12.37;9.78;;;;;;;9.30;100.00;98696.08;1726876;82;21016;-83
2022/09/06 03:43:13;;;;;;;15.68;10.25;;;;;;;9.31;100.00;98696.90;1737306;82;21095;-89
2022/09/06 03:45:39;;;;;;;13.48;9.80;;;;;;;9.33;100.00;98694.24;1737753;82;21046;-90
2022/09/06 03:48:05;;;;;;;12.53;9.50;;;;;;;9.35;100.00;98691.81;1736767;82;21458;-90
2022/09/06 03:50:31;;;;;;;12.78;8.25;;;;;;;9.35;100.00;98696.69;1721699;82;21499;-82
2022/09/06 03:52:57;;;;;;;13.62;9.28;;;;;;;9.35;100.00;98691.27;1737343;82;20996;-90
2022/09/06 03:55:23;;;;;;;14.33;9.23;;;;;;;9.37;100.00;98699.13;1713531;82;21594;-90
2022/09/06 03:57:49;;;;;;;17.57;10.15;;;;;;;9.35;100.00;98693.16;1712887;82;21831;-83
2022/09/06 04:00:15;;;;;;;11.63;8.80;;;;;;;9.33;100.00;98694.78;1726467;82;21023;-83
2022/09/06 04:02:41;;;;;;;10.45;7.72;;;;;;;9.36;100.00;98689.39;1730820;82;21012;-84
2022/09/06 04:05:08;;;;;;;11.53;7.78;;;;;;;9.36;100.00;98684.79;1734936;82;21091;-90
2022/09/06 04:07:36;;;;;;;12.55;8.93;;;;;;;9.36;100.00;98686.68;1737254;82;21178;-88
2022/09/06 04:10:03;;;;;;;12.93;7.50;;;;;;;9.34;100.00;98681.53;1713702;82;21849;-82
2022/09/06 04:12:29;;;;;;;15.70;9.35;;;;;;;9.36;100.00;98687.50;1659546;84;21027;-89
2022/09/06 04:14:55;;;;;;;14.50;8.55;;;;;;;9.38;100.00;98695.34;1679010;85;21021;-83
2022/09/06 04:17:21;;;;;;;11.08;8.83;;;;;;;9.38;100.00;98689.40;1685634;85;20879;-90
2022/09/06 04:19:47;;;;;;;14.25;8.30;;;;;;;9.35;100.00;98683.70;1685590;85;20978;-89
2022/09/06 04:22:14;;;;;;;17.02;9.65;;;;;;;9.37;100.00;98684.25;1720678;82;21104;-83
2022/09/06 04:24:40;;;;;;;13.22;9.18;;;;;;;9.36;100.00;98683.98;1713439;82;20962;-90
2022/09/06 04:27:06;;;;;;;12.55;8.43;;;;;;;9.39;100.00;98678.86;1712712;82;21018;-89
2022/09/06 04:29:32;;;;;;;14.03;8.60;;;;;;;9.36;100.00;98672.63;1727730;82;20928;-83
2022/09/06 04:31:58;;;;;;;12.30;8.55;;;;;;;9.44;100.00;98684.33;1726739;82;21439;-90
2022/09/06 04:34:24;;;;;;;15.05;9.13;;;;;;;9.48;100.00;98680.56;1726408;82;21035;-90
2022/09/06 04:36:50;;;;;;;12.10;8.15;;;;;;;9.49;100.00;98684.39;1727957;82;21038;-90
2022/09/06 04:39:16;;;;;;;12.05;8.63;;;;;;;9.56;100.00;98689.56;1724956;82;20990;-90
2022/09/06 04:41:42;;;;;;;13.88;7.70;;;;;;;9.58;100.00;98689.61;1725140;82;20957;-82
2022/09/06 04:44:09;;;;;;;13.40;8.93;;;;;;;9.64;100.00;98688.28;1699964;82;21055;-89
2022/09/06 04:46:35;;;;;;;22.48;19.67;;;;;;;9.66;100.00;98690.22;1682058;82;21847;-90
2022/09/06 04:49:01;;;;;;;14.65;8.95;;;;;;;9.73;100.00;98695.67;1708639;82;20996;-83
2022/09/06 04:51:27;;;;;;;10.85;8.80;;;;;;;9.81;100.00;98692.50;1727957;82;20936;-91
2022/09/06 04:53:53;;;;;;;14.35;7.83;;;;;;;9.88;100.00;98689.04;1737184;82;20846;-82
2022/09/06 04:56:21;;;;;;;10.82;7.50;;;;;;;9.92;100.00;98687.19;1730079;80;21006;-89
2022/09/06 04:58:47;;;;;;;13.18;8.58;;;;;;;9.93;100.00;98686.92;1710473;82;21117;-90
2022/09/06 05:01:14;;;;;;;12.88;7.67;;;;;;;9.99;100.00;98690.47;1707348;82;21079;-83
2022/09/06 05:03:40;;;;;;;12.98;7.67;;;;;;;10.07;100.00;98689.98;1671421;84;21020;-82
2022/09/06 05:06:12;;;;;;;11.93;7.92;;;;;;;10.13;100.00;98681.64;1660354;85;21592;-90
2022/09/06 05:08:39;;;;;;;12.70;8.03;;;;;;;10.15;100.00;98684.09;1666299;85;21014;-83
2022/09/06 05:11:06;;;;;;;13.45;8.58;;;;;;;10.25;100.00;98691.49;1691923;82;21079;-89
2022/09/06 05:13:32;;;;;;;12.28;7.65;;;;;;;10.32;100.00;98688.02;1708990;82;20975;-89
2022/09/06 05:16:03;;;;;;;11.75;7.42;;;;;;;10.38;100.00;98680.20;1725499;82;21068;-90
2022/09/06 05:18:29;;;;;;;11.57;8.38;;;;;;;10.43;100.00;98676.19;1715728;82;21052;-83
2022/09/06 05:20:55;;;;;;;10.55;7.85;;;;;;;10.45;100.00;98686.22;1724185;82;20913;-83
2022/09/06 05:23:21;;;;;;;11.08;7.15;;;;;;;10.52;100.00;98687.34;1716288;82;21034;-88
2022/09/06 05:25:47;;;;;;;10.38;7.42;;;;;;;10.59;100.00;98691.96;1725947;82;21008;-90
2022/09/06 05:28:14;;;;;;;11.43;7.72;;;;;;;10.60;100.00;98697.14;1714665;82;21018;-83
2022/09/06 05:30:40;;;;;;;11.93;6.35;;;;;;;10.68;100.00;98702.06;1704537;82;21032;-90
2022/09/06 05:33:10;;;;;;;11.40;6.33;;;;;;;10.78;100.00;98693.16;1720763;82;21104;-90
2022/09/06 05:35:35;;;;;;;12.63;7.72;;;;;;;10.85;100.00;98696.95;1713586;82;21170;-90
2022/09/06 05:38:01;;;;;;;9.13;7.25;;;;;;;10.94;100.00;98700.82;1718981;82;20870;-90
2022/09/06 05:40:27;;;;;;;13.00;7.03;;;;;;;11.07;100.00;98692.17;1714112;82;21088;-83
2022/09/06 05:42:54;;;;;;;9.20;6.22;;;;;;;11.16;100.00;98693.28;1676775;84;38519;-83
2022/09/06 05:45:20;;;;;;;9.50;6.53;;;;;;;11.26;100.00;98699.27;1655924;85;20984;-84
2022/09/06 05:47:46;;;;;;;11.53;6.58;;;;;;;11.33;100.00;98702.55;1722768;82;21904;-83
2022/09/06 05:50:12;;;;;;;12.23;6.62;;;;;;;11.38;100.00;98699.86;1704757;82;21008;-82
2022/09/06 05:52:38;;;;;;;8.88;6.83;;;;;;;11.41;100.00;98705.29;1736641;80;20985;-83
2022/09/06 05:55:06;;;;;;;13.75;8.13;;;;;;;11.48;100.00;98708.02;1718678;82;20873;-83
2022/09/06 05:57:32;;;;;;;12.85;7.78;;;;;;;11.56;100.00;98702.61;1708829;82;21028;-82
2022/09/06 05:59:58;;;;;;;9.83;7.42;;;;;;;11.56;100.00;98703.97;1690775;84;21138;-83
2022/09/06 06:02:24;;;;;;;10.93;7.83;;;;;;;11.57;100.00;98696.09;1712721;82;20893;-90
2022/09/06 06:04:50;;;;;;;12.85;7.42;;;;;;;11.64;100.00;98701.27;1726707;82;21263;-89
2022/09/06 06:07:17;;;;;;;11.33;7.58;;;;;;;11.72;100.00;98698.83;1706638;82;21032;-89
2022/09/06 06:09:43;;;;;;;13.40;8.23;;;;;;;11.77;100.00;98694.73;1669490;84;21041;-90
2022/09/06 06:12:09;;;;;;;9.53;7.37;;;;;;;11.92;100.00;98699.40;1725267;82;21126;-82
2022/09/06 06:14:35;;;;;;;13.40;8.58;;;;;;;12.12;100.00;98698.02;1720427;82;21090;-91
2022/09/06 06:17:01;;;;;;;14.53;9.70;;;;;;;12.23;100.00;98695.31;1723481;82;20906;-83
2022/09/06 06:19:27;;;;;;;11.40;8.48;;;;;;;12.55;100.00;98688.16;1722723;82;21158;-82
2022/09/06 06:21:54;;;;;;;9.75;7.25;;;;;;;12.81;100.00;98683.45;1680447;84;21050;-91
2022/09/06 06:24:20;;;;;;;12.58;8.03;;;;;;;13.20;100.00;98690.39;1717097;82;21045;-90
2022/09/06 06:26:46;;;;;;;17.48;8.60;;;;;;;13.51;100.00;98686.41;1710526;82;21069;-83
2022/09/06 06:29:13;;;;;;;10.35;7.35;;;;;;;13.63;100.00;98696.13;1701989;82;20988;-91
2022/09/06 06:31:39;;;;;;;13.40;8.30;;;;;;;13.87;100.00;98690.77;1722815;82;21009;-92
2022/09/06 06:34:06;;;;;;;12.23;8.93;;;;;;;13.96;97.83;98692.59;1719083;82;21501;-91
2022/09/06 06:36:33;;;;;;;14.55;7.58;;;;;;;14.15;97.67;98695.42;1691906;82;21670;-90
2022/09/06 06:39:00;;;;;;;11.00;7.72;;;;;;;14.28;98.88;98691.23;1680619;84;21101;-83
2022/09/06 06:41:29;;;;;;;16.25;9.28;;;;;;;14.35;97.86;98691.13;1715264;82;21028;-91
2022/09/06 06:43:57;;;;;;;13.13;7.92;;;;;;;14.48;98.26;98695.14;1724722;82;21739;-83
2022/09/06 06:46:29;;;;;;;14.43;9.23;;;;;;;14.68;92.86;98690.81;1715614;82;22479;-83
2022/09/06 06:48:54;;;;;;;12.63;8.08;;;;;;;15.15;93.36;98691.90;1710074;82;21563;-90
2022/09/06 06:51:24;;;;;;;10.55;7.33;;;;;;;15.77;93.78;98692.66;1721534;82;20881;-91
2022/09/06 06:53:50;;;;;;;14.25;8.88;;;;;;;16.10;91.94;98689.95;1720816;82;20985;-91
2022/09/06 06:56:27;;;;;;;13.93;8.38;;;;;;;16.18;88.55;98690.64;1716331;82;21082;-91
2022/09/06 06:58:59;;;;;;;9.90;8.23;;;;;;;16.76;91.88;98690.15;1718307;82;21051;-88
2022/09/06 07:01:26;;;;;;;12.70;8.53;;;;;;;17.17;86.83;98687.36;1719348;80;21287;-91
2022/09/06 07:03:53;;;;;;;12.37;8.20;;;;;;;17.69;86.41;98678.28;1698700;82;21519;-91
2022/09/06 07:06:19;;;;;;;14.87;9.63;;;;;;;18.23;87.06;98679.72;1709141;82;21054;-84
2022/09/06 07:08:45;;;;;;;9.60;7.90;;;;;;;18.51;82.90;98677.04;1712910;82;21468;-90
2022/09/06 07:11:12;;;;;;;9.70;6.85;;;;;;;18.87;81.70;98678.83;1712627;82;20984;-84
2022/09/06 07:13:38;;;;;;;7.92;6.70;;;;;;;19.38;80.59;98678.70;1715728;82;21277;-83
2022/09/06 07:16:21;;;;;;;8.78;6.70;;;;;;;19.87;80.56;98670.58;1722436;82;20874;-91
2022/09/06 07:18:52;;;;;;;10.28;6.33;;;;;;;20.27;79.90;98672.55;1712571;82;21102;-84
2022/09/06 07:21:25;;;;;;;13.08;7.08;;;;;;;20.51;74.34;98676.73;1722173;82;21032;-91
2022/09/06 07:23:49;;;;;;;12.53;6.30;;;;;;;21.07;73.60;98687.08;1716952;82;21011;-91
2022/09/06 07:26:17;;;;;;;9.88;6.17;;;;;;;20.74;73.35;98691.03;1714198;82;21277;-92
2022/09/06 07:28:43;;;;;;;11.00;6.12;;;;;;;21.39;72.03;98687.80;1711088;82;20994;-91
2022/09/06 07:31:09;;;;;;;9.80;5.62;;;;;;;21.53;71.64;98686.72;1685965;82;21224;-90
2022/09/06 07:33:36;;;;;;;9.05;5.20;;;;;;;21.89;68.77;98687.52;1703593;82;21359;-92
2022/09/06 07:36:03;;;;;;;7.33;5.15;;;;;;;21.96;69.31;98693.27;1673026;85;21535;-92
2022/09/06 07:38:30;;;;;;;9.95;5.80;;;;;;;21.51;68.18;98688.45;1713135;82;21429;-92
2022/09/06 07:40:59;;;;;;;10.10;5.17;;;;;;;20.99;63.13;98695.63;1721061;82;21508;-92
2022/09/06 07:43:26;;;;;;;9.73;5.00;;;;;;;21.74;67.40;98686.74;1726993;82;21061;-85
2022/09/06 07:46:12;;;;;;;7.20;5.00;;;;;;;22.13;65.50;98683.50;1723303;81;21016;-90
2022/09/06 07:48:40;;;;;;;13.95;5.10;;;;;;;21.46;65.25;98687.86;1711836;82;21491;-91
2022/09/06 07:51:13;;;;;;;8.00;4.80;;;;;;;20.85;66.31;98685.42;1700317;82;21261;-84
2022/09/06 07:53:40;;;;;;;8.80;5.83;;;;;;;20.54;67.35;98685.70;1716272;82;21209;-90
2022/09/06 07:56:08;;;;;;;9.38;5.85;;;;;;;20.22;67.11;98687.03;1715934;80;21095;-91
2022/09/06 07:58:35;;;;;;;9.68;5.17;;;;;;;20.74;65.31;98674.52;1679837;84;21225;-85
2022/09/06 08:01:29;;;;;;;8.23;5.35;;;;;;;21.91;65.68;98668.09;1722449;82;21055;-84
2022/09/06 08:04:00;;;;;;;7.50;4.75;;;;;;;22.41;62.69;98661.61;1679926;84;21187;-92
2022/09/06 08:06:28;;;;;;;7.92;5.83;;;;;;;22.90;59.24;98669.98;1704470;82;21032;-85
2022/09/06 08:08:54;;;;;;;7.90;5.22;;;;;;;23.77;56.98;98667.34;1715237;80;21166;-85
2022/09/06 08:11:21;;;;;;;9.48;4.72;;;;;;;23.51;60.58;98664.96;1727890;82;21450;-92
2022/09/06 08:13:53;;;;;;;9.75;4.92;;;;;;;23.25;59.92;98665.36;1719284;82;21480;-84
2022/09/06 08:16:19;;;;;;;8.10;4.62;;;;;;;22.45;61.99;98662.52;1703658;82;21084;-84
2022/09/06 08:18:54;;;;;;;15.55;6.37;;;;;;;21.94;62.39;98659.13;1732818;81;21018;-91
2022/09/06 08:21:22;;;;;;;10.68;5.03;;;;;;;21.48;63.78;98663.51;1714580;82;21008;-90
2022/09/06 08:23:52;;;;;;;10.30;4.85;;;;;;;20.86;64.37;98662.81;1711998;82;21060;-85
2022/09/06 08:26:19;;;;;;;8.58;5.62;;;;;;;20.66;65.47;98666.53;1720978;82;21619;-85
2022/09/06 08:28:45;;;;;;;8.28;5.10;;;;;;;20.31;66.29;98668.56;1692861;84;21181;-91
2022/09/06 08:31:14;;;;;;;9.15;5.05;;;;;;;20.04;67.13;98662.07;1720285;81;21098;-90
2022/09/06 08:33:40;;;;;;;11.05;5.47;;;;;;;19.86;69.14;98665.41;1716008;82;21065;-92
2022/09/06 08:36:06;;;;;;;14.58;6.25;;;;;;;19.88;68.27;98667.27;1726656;82;21111;-84
2022/09/06 08:38:32;;;;;;;9.78;5.78;;;;;;;20.22;67.74;98658.95;1713637;82;21075;-84
2022/09/06 08:41:25;;;;;;;11.53;6.60;;;;;;;20.15;68.36;98658.64;1734704;82;22355;-84
2022/09/06 08:44:04;;;;;;;21.17;14.43;;;;;;;20.10;68.47;98653.90;1726631;81;21040;-84
2022/09/06 08:46:41;;;;;;;15.28;8.45;;;;;;;19.91;68.35;98658.35;1717198;82;21422;-84
2022/09/06 08:49:07;;;;;;;17.63;9.80;;;;;;;19.82;68.91;98656.18;1719626;82;21189;-84
2022/09/06 08:51:57;;;;;;;10.08;5.90;;;;;;;19.58;69.13;98663.57;1704017;82;20908;-84
2022/09/06 08:54:44;;;;;;;10.75;4.62;;;;;;;19.35;69.97;98658.18;1727535;82;21145;-84
2022/09/06 08:57:28;;;;;;;13.95;6.95;;;;;;;19.16;70.68;98659.86;1743750;80;21130;-84
2022/09/06 08:59:58;;;;;;;10.58;5.40;;;;;;;19.24;70.42;98656.88;1701188;82;21477;-93
2022/09/06 09:02:24;;;;;;;7.65;4.45;;;;;;;19.39;66.81;98655.02;1722651;82;21005;-84
2022/09/06 09:04:57;;;;;;;9.58;4.60;;;;;;;19.15;66.88;98662.36;1719685;82;20885;-83
2022/09/06 09:07:37;;;;;;;7.37;4.97;;;;;;;19.22;66.86;98659.69;1711177;80;21061;-91
2022/09/06 09:10:09;;;;;;;7.28;4.50;;;;;;;19.24;67.53;98657.45;1720665;82;21047;-84
2022/09/06 09:12:39;;;;;;;7.80;5.92;;;;;;;19.52;66.04;98654.63;1677516;84;21044;-84
2022/09/06 09:15:07;;;;;;;9.88;4.92;;;;;;;19.32;65.85;98657.45;1655048;85;21003;-84
2022/09/06 09:17:33;;;;;;;9.73;4.90;;;;;;;19.41;67.01;98653.34;1705656;82;21013;-84
2022/09/06 09:19:59;;;;;;;8.75;4.97;;;;;;;19.31;67.85;98653.09;1730326;80;21559;-84
2022/09/06 09:22:26;;;;;;;8.00;5.35;;;;;;;19.25;66.67;98654.38;1714199;82;22213;-84
2022/09/06 09:24:51;;;;;;;11.80;5.05;;;;;;;19.19;67.17;98654.84;1723160;82;21491;-84
2022/09/06 09:27:21;;;;;;;8.58;5.70;;;;;;;18.94;66.53;98654.46;1671209;84;20879;-89
2022/09/06 09:29:57;;;;;;;11.93;5.05;;;;;;;18.84;67.40;98653.39;1702845;82;21062;-83
2022/09/06 09:32:41;;;;;;;7.80;5.62;;;;;;;18.91;68.03;98655.67;1723406;81;22073;-84
2022/09/06 09:35:31;;;;;;;10.20;5.60;;;;;;;18.78;68.37;98651.91;1712920;82;20994;-91
2022/09/06 09:38:12;;;;;;;15.28;8.70;;;;;;;18.70;68.57;98650.75;1624896;86;21160;-91
2022/09/06 09:40:57;;;;;;;7.67;5.28;;;;;;;18.81;69.04;98649.92;1599921;87;21145;-91
2022/09/06 09:43:29;;;;;;;11.95;6.95;;;;;;;18.69;68.10;98646.39;1664653;81;21111;-91
2022/09/06 09:46:22;;;;;;;17.60;7.22;;;;;;;18.83;69.09;98641.60;1681095;84;21322;-92
2022/09/06 09:49:15;;;;;;;13.48;7.80;;;;;;;18.87;70.51;98633.52;1710087;82;21024;-84
2022/09/06 09:51:43;;;;;;;13.85;7.80;;;;;;;19.04;70.41;98634.94;1630421;87;21090;-91
2022/09/06 09:54:12;;;;;;;12.05;6.35;;;;;;;19.20;71.53;98628.98;1711931;80;21452;-84
2022/09/06 09:56:53;;;;;;;10.05;6.22;;;;;;;19.24;70.75;98627.23;1669642;83;21546;-91
2022/09/06 09:59:31;;;;;;;7.72;4.70;;;;;;;19.28;69.77;98620.75;1712554;82;21239;-91
2022/09/06 10:02:00;;;;;;;11.12;5.45;;;;;;;19.68;70.00;98620.63;1716169;82;21115;-84
2022/09/06 10:04:40;;;;;;;11.00;4.65;;;;;;;19.71;67.42;98614.47;1681419;84;21168;-84
2022/09/06 10:07:15;;;;;;;13.95;5.70;;;;;;;19.90;67.41;98612.17;1692473;82;21162;-92
2022/09/06 10:09:45;;;;;;;9.03;5.00;;;;;;;20.25;67.73;98601.91;1718557;80;21123;-84
2022/09/06 10:12:29;;;;;;;12.10;5.00;;;;;;;20.60;67.75;98600.98;1735725;82;21134;-91
2022/09/06 10:14:56;;;;;;;7.55;5.00;;;;;;;20.90;68.06;98594.89;1694219;82;21067;-92
2022/09/06 10:17:50;;;;;;;8.55;4.67;;;;;;;20.98;66.14;98588.52;1712996;82;21321;-84
2022/09/06 10:20:16;;;;;;;6.97;4.03;;;;;;;20.60;63.37;98592.73;1676273;82;21125;-84
2022/09/06 10:23:02;;;;;;;7.67;4.62;;;;;;;20.55;63.54;98582.13;1680335;84;21156;-92
2022/09/06 10:25:56;;;;;;;10.70;5.05;;;;;;;20.50;63.35;98587.00;1715148;82;21050;-92
2022/09/06 10:28:40;;;;;;;8.10;4.53;;;;;;;20.50;64.03;98585.05;1713996;82;21020;-92
2022/09/06 10:31:29;;;;;;;8.18;4.37;;;;;;;20.34;62.34;98582.61;1712306;82;21115;-92
2022/09/06 10:34:21;;;;;;;8.15;5.20;;;;;;;20.75;62.74;98576.99;1710248;82;21127;-91
2022/09/06 10:36:53;;;;;;;6.65;4.17;;;;;;;20.68;61.88;98582.21;1685548;84;21066;-85
2022/09/06 10:39:50;;;;;;;8.55;5.85;;;;;;;20.42;62.16;98571.30;1727413;82;22083;-84
2022/09/06 10:42:34;;;;;;;9.85;4.67;;;;;;;20.27;62.95;98574.87;1721474;82;21166;-91
2022/09/06 10:45:43;;;;;;;13.60;5.28;;;;;;;20.37;63.83;98571.50;1716171;80;21080;-91
2022/09/06 10:48:17;;;;;;;10.25;4.47;;;;;;;20.27;63.63;98578.19;1721915;82;21540;-92
2022/09/06 10:50:54;;;;;;;7.10;4.58;;;;;;;19.99;64.35;98573.64;1710353;82;21009;-91
2022/09/06 10:53:49;;;;;;;7.50;4.58;;;;;;;20.18;64.39;98576.04;1720293;82;21407;-92
2022/09/06 10:56:37;;;;;;;6.97;4.60;;;;;;;19.84;63.44;98572.25;1664959;84;21620;-84
2022/09/06 10:59:33;;;;;;;7.42;4.53;;;;;;;19.91;63.84;98571.73;1711989;82;21225;-84
2022/09/06 11:02:47;;;;;;;10.88;5.05;;;;;;;20.18;62.54;98570.53;1707234;82;21083;-91
2022/09/06 11:05:29;;;;;;;6.12;4.70;;;;;;;20.29;61.73;98571.78;1711981;82;21452;-84
2022/09/06 11:08:01;;;;;;;10.03;4.65;;;;;;;20.50;62.47;98568.54;1706835;80;21159;-84
2022/09/06 11:10:36;;;;;;;7.62;4.58;;;;;;;20.49;60.94;98563.38;1714327;82;21146;-90
2022/09/06 11:13:08;;;;;;;10.63;4.30;;;;;;;20.41;61.64;98548.48;1717857;82;21475;-84
2022/09/06 11:15:46;;;;;;;8.43;4.50;;;;;;;20.34;61.18;98563.35;1663165;85;21036;-84
2022/09/06 11:18:43;;;;;;;7.37;4.97;;;;;;;20.48;61.47;98553.50;1716099;82;21535;-84
2022/09/06 11:21:51;;;;;;;7.85;3.90;;;;;;;20.70;61.71;98551.84;1697067;82;22030;-92
2022/09/06 11:25:13;;;;;;;11.20;4.70;;;;;;;20.80;62.25;98543.20;1710227;82;21131;-84
2022/09/06 11:27:41;;;;;;;8.08;3.90;;;;;;;20.99;61.57;98539.17;1729525;82;21059;-84
2022/09/06 11:30:13;;;;;;;9.73;4.35;;;;;;;21.10;60.16;98529.36;1682834;84;21491;-84
2022/09/06 11:32:44;;;;;;;7.25;4.03;;;;;;;21.31;59.83;98533.52;1734118;80;21124;-91
2022/09/06 11:35:31;;;;;;;8.18;3.77;;;;;;;21.09;59.60;98533.25;1720524;82;21483;-84
2022/09/06 11:38:08;;;;;;;10.28;4.35;;;;;;;20.84;59.23;98527.60;1727466;82;21107;-86
2022/09/06 11:40:40;;;;;;;7.25;4.05;;;;;;;20.83;60.23;98529.31;1718804;82;21112;-84
2022/09/06 11:43:10;;;;;;;7.97;4.45;;;;;;;20.93;60.48;98526.16;1726552;82;21032;-84
2022/09/06 11:45:49;;;;;;;8.60;4.72;;;;;;;20.90;60.64;98527.41;1718272;82;21442;-84
2022/09/06 11:48:32;;;;;;;7.62;4.83;;;;;;;20.66;60.22;98525.30;1695274;82;21513;-92